Time;durP1;ratioP1;P1;durP2;ratioP2;P2;SDS_P1;SDS_P2;PMS_P1;PMS_P2;Temp;Humidity;BMP_temperature;BMP_pressure;BME280_temperature;BME280_humidity;BME280_pressure;Samples;Min_cycle;Max_cycle;Signal;HPM_P1;HPM_P2
2022/08/20 00:01:09;;;;;;;2.75;2.53;;;;;;;;;;5116563;28;20203;-65
2022/08/20 00:03:37;;;;;;;2.58;2.40;;;;;;;;;;5116524;28;20256;-64
2022/08/20 00:06:07;;;;;;;2.70;2.50;;;;;;;;;;5116404;28;20203;-64
2022/08/20 00:08:34;;;;;;;3.08;2.80;;;;;;;;;;5117022;28;20203;-65
2022/08/20 00:11:03;;;;;;;2.85;2.65;;;;;;;;;;5117208;28;20567;-64
2022/08/20 00:13:31;;;;;;;2.83;2.63;;;;;;;;;;5116346;28;20207;-64
2022/08/20 00:15:59;;;;;;;3.15;2.95;;;;;;;;;;5116417;28;20267;-64
2022/08/20 00:18:27;;;;;;;2.80;2.60;;;;;;;;;;5116256;28;20207;-64
2022/08/20 00:20:55;;;;;;;3.58;3.25;;;;;;;;;;5116228;28;20213;-64
2022/08/20 00:23:23;;;;;;;3.05;2.85;;;;;;;;;;5116693;28;20223;-64
2022/08/20 00:25:50;;;;;;;4.13;3.10;;;;;;;;;;5116183;28;20265;-65
2022/08/20 00:28:20;;;;;;;3.13;2.90;;;;;;;;;;5116971;28;20230;-65
2022/08/20 00:30:47;;;;;;;3.47;3.28;;;;;;;;;;5116991;28;20574;-65
2022/08/20 00:33:16;;;;;;;3.05;2.85;;;;;;;;;;5116864;28;20203;-64
2022/08/20 00:35:45;;;;;;;3.05;2.83;;;;;;;;;;5117075;28;20579;-65
2022/08/20 00:38:12;;;;;;;3.95;3.20;;;;;;;;;;5116373;28;20283;-64
2022/08/20 00:40:41;;;;;;;3.80;2.90;;;;;;;;;;5115920;28;20293;-64
2022/08/20 00:43:24;;;;;;;3.40;3.10;;;;;;;;;;5118404;28;20264;-65
2022/08/20 00:45:56;;;;;;;3.25;2.95;;;;;;;;;;5120636;28;20590;-64
2022/08/20 00:48:23;;;;;;;3.08;2.85;;;;;;;;;;5121176;28;20226;-64
2022/08/20 00:50:51;;;;;;;3.40;3.10;;;;;;;;;;5120542;28;20198;-64
2022/08/20 00:53:19;;;;;;;3.22;2.92;;;;;;;;;;5120628;28;20289;-64
2022/08/20 00:55:47;;;;;;;3.38;3.08;;;;;;;;;;5120702;28;20542;-65
2022/08/20 00:58:14;;;;;;;3.38;3.08;;;;;;;;;;5120082;28;20551;-64
2022/08/20 01:00:44;;;;;;;3.35;3.05;;;;;;;;;;5120383;28;20203;-64
2022/08/20 01:03:15;;;;;;;3.55;3.25;;;;;;;;;;5120510;28;20618;-64
2022/08/20 01:05:45;;;;;;;3.38;3.08;;;;;;;;;;5120155;28;20215;-64
2022/08/20 01:08:13;;;;;;;3.60;3.30;;;;;;;;;;5120076;28;20214;-64
2022/08/20 01:10:43;;;;;;;3.35;3.05;;;;;;;;;;5120309;28;20211;-64
2022/08/20 01:13:12;;;;;;;3.58;3.30;;;;;;;;;;5119621;28;20609;-64
2022/08/20 01:15:41;;;;;;;3.53;3.22;;;;;;;;;;5119887;28;20643;-64
2022/08/20 01:18:10;;;;;;;3.42;3.15;;;;;;;;;;5120311;28;20214;-64
2022/08/20 01:20:42;;;;;;;3.75;3.45;;;;;;;;;;5119448;28;20523;-65
2022/08/20 01:23:28;;;;;;;3.63;3.33;;;;;;;;;;5120014;28;20233;-64
2022/08/20 01:25:59;;;;;;;3.50;3.20;;;;;;;;;;5120090;28;20201;-64
2022/08/20 01:28:29;;;;;;;3.80;3.50;;;;;;;;;;5119627;28;20228;-64
2022/08/20 01:30:56;;;;;;;3.45;3.15;;;;;;;;;;5119610;28;20838;-64
2022/08/20 01:33:24;;;;;;;3.63;3.33;;;;;;;;;;5119417;28;20195;-64
2022/08/20 01:35:52;;;;;;;3.80;3.50;;;;;;;;;;5112610;28;20200;-64
2022/08/20 01:38:20;;;;;;;3.95;3.47;;;;;;;;;;5098886;28;20203;-64
2022/08/20 01:41:18;;;;;;;3.53;3.22;;;;;;;;;;5099475;28;20214;-64
2022/08/20 01:43:48;;;;;;;3.75;3.45;;;;;;;;;;5016534;28;20234;-64
2022/08/20 01:46:15;;;;;;;3.53;3.22;;;;;;;;;;5081410;28;20542;-64
2022/08/20 01:48:43;;;;;;;3.53;3.28;;;;;;;;;;5112341;28;20617;-65
2022/08/20 01:51:13;;;;;;;3.72;3.42;;;;;;;;;;5119365;28;20247;-64
2022/08/20 01:53:41;;;;;;;3.53;3.22;;;;;;;;;;5119433;28;20238;-65
2022/08/20 01:56:10;;;;;;;3.40;3.10;;;;;;;;;;5118953;28;20203;-64
2022/08/20 01:58:40;;;;;;;4.30;3.90;;;;;;;;;;5119645;28;20472;-65
2022/08/20 02:01:09;;;;;;;4.15;3.65;;;;;;;;;;5119059;28;20583;-64
2022/08/20 02:03:36;;;;;;;3.40;3.10;;;;;;;;;;5108192;28;20280;-64
2022/08/20 02:06:04;;;;;;;3.60;3.30;;;;;;;;;;5098457;28;20199;-65
2022/08/20 02:08:32;;;;;;;3.42;3.13;;;;;;;;;;5098259;28;20312;-64
2022/08/20 02:10:59;;;;;;;3.60;3.30;;;;;;;;;;5098973;28;20288;-65
2022/08/20 02:13:26;;;;;;;3.63;3.33;;;;;;;;;;5098183;28;20572;-64
2022/08/20 02:15:54;;;;;;;3.38;3.08;;;;;;;;;;5098707;28;20211;-64
2022/08/20 02:18:23;;;;;;;3.30;3.00;;;;;;;;;;5099773;28;20196;-64
2022/08/20 02:20:51;;;;;;;3.67;3.38;;;;;;;;;;5098857;28;20211;-64
2022/08/20 02:23:18;;;;;;;3.30;3.00;;;;;;;;;;5098479;28;20223;-64
2022/08/20 02:25:47;;;;;;;3.65;3.35;;;;;;;;;;5098652;28;20242;-65
2022/08/20 02:28:18;;;;;;;3.03;2.83;;;;;;;;;;5098623;28;20583;-65
2022/08/20 02:30:46;;;;;;;3.60;3.30;;;;;;;;;;5117998;28;20317;-65
2022/08/20 02:33:15;;;;;;;3.17;2.88;;;;;;;;;;5131273;27;20291;-64
2022/08/20 02:35:44;;;;;;;3.72;3.20;;;;;;;;;;5127836;27;20199;-65
2022/08/20 02:38:12;;;;;;;3.25;2.95;;;;;;;;;;5118372;28;20203;-64
2022/08/20 02:40:40;;;;;;;3.20;3.00;;;;;;;;;;5118686;28;20265;-64
2022/08/20 02:43:07;;;;;;;3.20;3.00;;;;;;;;;;5118864;28;20227;-64
2022/08/20 02:45:42;;;;;;;3.15;2.95;;;;;;;;;;5118389;28;20207;-64
2022/08/20 02:48:10;;;;;;;3.30;3.10;;;;;;;;;;5125703;27;20204;-65
2022/08/20 02:50:38;;;;;;;2.75;2.55;;;;;;;;;;5138919;27;20202;-64
2022/08/20 02:53:07;;;;;;;3.58;2.78;;;;;;;;;;5139144;27;20564;-65
2022/08/20 02:55:34;;;;;;;3.05;2.85;;;;;;;;;;5138856;27;20209;-65
2022/08/20 02:58:01;;;;;;;3.60;3.30;;;;;;;;;;5138677;27;20209;-64
2022/08/20 03:00:30;;;;;;;3.50;3.20;;;;;;;;;;5139046;27;20202;-64
2022/08/20 03:02:58;;;;;;;2.83;2.55;;;;;;;;;;5138401;27;20234;-65
2022/08/20 03:05:25;;;;;;;3.25;2.95;;;;;;;;;;5137960;27;20202;-64
2022/08/20 03:07:55;;;;;;;3.30;3.10;;;;;;;;;;5136771;27;20218;-64
2022/08/20 03:10:27;;;;;;;3.20;3.00;;;;;;;;;;5138398;27;20210;-64
2022/08/20 03:12:55;;;;;;;2.78;2.58;;;;;;;;;;5138415;27;20259;-64
2022/08/20 03:15:23;;;;;;;3.17;2.92;;;;;;;;;;5133297;27;20195;-65
2022/08/20 03:17:51;;;;;;;2.97;2.67;;;;;;;;;;5133564;27;20199;-64
2022/08/20 03:20:18;;;;;;;2.90;2.70;;;;;;;;;;5138991;27;20202;-64
2022/08/20 03:22:47;;;;;;;3.13;2.92;;;;;;;;;;5139200;27;20262;-64
2022/08/20 03:25:15;;;;;;;3.20;2.90;;;;;;;;;;5138581;27;20209;-64
2022/08/20 03:27:45;;;;;;;2.90;2.70;;;;;;;;;;5138668;27;20202;-64
2022/08/20 03:30:14;;;;;;;3.05;2.85;;;;;;;;;;5138177;27;20625;-64
2022/08/20 03:32:41;;;;;;;2.88;2.67;;;;;;;;;;5138454;27;20461;-65
2022/08/20 03:35:11;;;;;;;3.05;2.80;;;;;;;;;;5138935;27;20524;-64
2022/08/20 03:37:39;;;;;;;2.72;2.42;;;;;;;;;;5138459;27;20209;-64
2022/08/20 03:40:08;;;;;;;2.90;2.70;;;;;;;;;;5138775;27;20535;-64
2022/08/20 03:42:36;;;;;;;3.00;2.80;;;;;;;;;;5136583;27;20202;-64
2022/08/20 03:45:04;;;;;;;3.20;2.90;;;;;;;;;;5117844;28;20630;-64
2022/08/20 03:47:32;;;;;;;2.90;2.70;;;;;;;;;;5123852;28;20194;-65
2022/08/20 03:49:59;;;;;;;2.60;2.40;;;;;;;;;;5138408;28;20202;-64
2022/08/20 03:52:28;;;;;;;3.00;2.80;;;;;;;;;;5138493;28;20228;-64
2022/08/20 03:54:55;;;;;;;2.80;2.60;;;;;;;;;;5138107;28;20606;-65
2022/08/20 03:57:23;;;;;;;2.83;2.63;;;;;;;;;;5138001;28;20205;-65
2022/08/20 03:59:50;;;;;;;3.08;2.88;;;;;;;;;;5138004;28;20210;-65
2022/08/20 04:02:19;;;;;;;2.90;2.70;;;;;;;;;;5138581;28;20202;-65
2022/08/20 04:04:46;;;;;;;2.63;2.42;;;;;;;;;;5138358;28;20234;-65
2022/08/20 04:07:16;;;;;;;2.92;2.60;;;;;;;;;;5137873;28;20246;-65
2022/08/20 04:09:44;;;;;;;2.80;2.60;;;;;;;;;;5137239;28;20210;-65
2022/08/20 04:12:12;;;;;;;3.10;2.80;;;;;;;;;;5136391;28;20262;-64
2022/08/20 04:14:39;;;;;;;3.10;2.90;;;;;;;;;;5138476;28;20562;-64
2022/08/20 04:17:08;;;;;;;2.72;2.53;;;;;;;;;;5137540;27;20304;-65
2022/08/20 04:19:38;;;;;;;2.97;2.78;;;;;;;;;;5142265;27;20251;-64
2022/08/20 04:22:06;;;;;;;2.70;2.50;;;;;;;;;;5142298;27;20248;-64
2022/08/20 04:24:34;;;;;;;2.53;2.40;;;;;;;;;;5141974;27;20226;-65
2022/08/20 04:27:03;;;;;;;2.83;2.63;;;;;;;;;;5139988;27;20206;-65
2022/08/20 04:29:30;;;;;;;2.85;2.65;;;;;;;;;;5141838;27;20261;-64
2022/08/20 04:31:59;;;;;;;2.90;2.70;;;;;;;;;;5141976;27;20202;-65
2022/08/20 04:34:28;;;;;;;2.90;2.70;;;;;;;;;;5141709;27;20209;-64
2022/08/20 04:36:56;;;;;;;2.63;2.42;;;;;;;;;;5141551;27;20202;-65
2022/08/20 04:39:24;;;;;;;3.00;2.80;;;;;;;;;;5142035;27;20271;-64
2022/08/20 04:41:50;;;;;;;3.05;2.85;;;;;;;;;;5123006;27;20546;-65
2022/08/20 04:44:18;;;;;;;2.70;2.50;;;;;;;;;;5121384;28;20318;-64
2022/08/20 04:46:45;;;;;;;2.65;2.45;;;;;;;;;;5121077;28;20202;-65
2022/08/20 04:49:12;;;;;;;2.95;2.75;;;;;;;;;;5121214;28;20209;-64
2022/08/20 04:51:42;;;;;;;3.00;2.80;;;;;;;;;;5121040;28;20203;-65
2022/08/20 04:54:13;;;;;;;2.83;2.63;;;;;;;;;;5120957;28;20203;-64
2022/08/20 04:56:40;;;;;;;3.08;2.83;;;;;;;;;;5136942;27;20285;-65
2022/08/20 04:59:08;;;;;;;3.95;2.80;;;;;;;;;;5140919;27;20263;-65
2022/08/20 05:01:36;;;;;;;2.60;2.40;;;;;;;;;;5141034;27;20582;-65
2022/08/20 05:04:03;;;;;;;2.78;2.58;;;;;;;;;;5140946;27;20226;-65
2022/08/20 05:06:32;;;;;;;2.63;2.47;;;;;;;;;;5141335;27;20669;-65
2022/08/20 05:09:00;;;;;;;2.80;2.60;;;;;;;;;;5141700;27;20270;-65
2022/08/20 05:11:28;;;;;;;3.05;2.85;;;;;;;;;;5139416;27;20259;-65
2022/08/20 05:13:56;;;;;;;2.90;2.70;;;;;;;;;;5141359;27;20190;-65
2022/08/20 05:16:23;;;;;;;2.42;2.33;;;;;;;;;;5141198;27;20563;-65
2022/08/20 05:18:51;;;;;;;2.75;2.55;;;;;;;;;;5140810;27;20309;-65
2022/08/20 05:21:19;;;;;;;2.90;2.70;;;;;;;;;;5141213;27;20285;-64
2022/08/20 05:23:46;;;;;;;2.63;2.42;;;;;;;;;;5140407;27;20637;-65
2022/08/20 05:26:14;;;;;;;2.95;2.75;;;;;;;;;;5140961;27;20202;-65
2022/08/20 05:28:44;;;;;;;2.65;2.45;;;;;;;;;;5140382;27;20231;-65
2022/08/20 05:31:11;;;;;;;2.80;2.60;;;;;;;;;;5140140;27;20206;-65
2022/08/20 05:33:39;;;;;;;3.00;2.80;;;;;;;;;;5140545;27;20198;-65
2022/08/20 05:36:07;;;;;;;2.63;2.42;;;;;;;;;;5140704;27;20202;-65
2022/08/20 05:38:35;;;;;;;2.55;2.35;;;;;;;;;;5137938;27;20263;-65
2022/08/20 05:41:03;;;;;;;2.97;2.78;;;;;;;;;;5122914;27;20199;-65
2022/08/20 05:43:32;;;;;;;2.50;2.30;;;;;;;;;;5119547;28;20222;-65
2022/08/20 05:46:01;;;;;;;2.80;2.60;;;;;;;;;;5119420;28;20203;-64
2022/08/20 05:48:29;;;;;;;2.90;2.70;;;;;;;;;;5119856;28;20203;-65
2022/08/20 05:50:57;;;;;;;2.80;2.60;;;;;;;;;;5119402;28;20203;-64
2022/08/20 05:53:25;;;;;;;2.90;2.70;;;;;;;;;;5119048;28;20199;-65
2022/08/20 05:55:53;;;;;;;3.45;3.15;;;;;;;;;;5130130;27;20659;-64
2022/08/20 05:58:22;;;;;;;2.60;2.40;;;;;;;;;;5140460;27;20210;-65
2022/08/20 06:00:50;;;;;;;2.90;2.70;;;;;;;;;;5139883;27;20210;-65
2022/08/20 06:06:04;;;;;;;2.80;2.60;;;;;;;;;;5119479;28;20335;-65
2022/08/20 06:08:32;;;;;;;2.53;2.42;;;;;;;;;;5119074;28;20298;-65
2022/08/20 06:10:59;;;;;;;2.90;2.70;;;;;;;;;;5119165;28;20203;-65
2022/08/20 06:13:27;;;;;;;2.92;2.72;;;;;;;;;;5118578;28;20548;-65
2022/08/20 06:15:55;;;;;;;2.80;2.60;;;;;;;;;;5119123;28;20203;-64
2022/08/20 06:18:24;;;;;;;2.80;2.60;;;;;;;;;;5118528;28;20366;-64
2022/08/20 06:20:51;;;;;;;2.33;2.22;;;;;;;;;;5119454;28;20275;-65
2022/08/20 06:23:19;;;;;;;2.95;2.75;;;;;;;;;;5119473;27;20199;-65
2022/08/20 06:25:49;;;;;;;3.00;2.80;;;;;;;;;;5118370;28;20260;-65
2022/08/20 06:28:16;;;;;;;2.70;2.50;;;;;;;;;;5118896;28;20541;-65
2022/08/20 06:30:43;;;;;;;2.88;2.67;;;;;;;;;;5118243;28;20235;-64
2022/08/20 06:33:11;;;;;;;2.80;2.60;;;;;;;;;;5118497;28;20271;-65
2022/08/20 06:35:39;;;;;;;2.97;2.78;;;;;;;;;;5118475;28;20199;-65
2022/08/20 06:38:07;;;;;;;2.40;2.30;;;;;;;;;;5118267;28;20263;-65
2022/08/20 06:40:34;;;;;;;2.88;2.67;;;;;;;;;;5117822;28;20210;-65
2022/08/20 06:43:02;;;;;;;2.83;2.63;;;;;;;;;;5118316;28;20210;-64
2022/08/20 06:45:30;;;;;;;3.00;2.80;;;;;;;;;;5118111;28;20227;-65
2022/08/20 06:47:58;;;;;;;2.88;2.67;;;;;;;;;;5117940;28;20267;-64
2022/08/20 06:50:29;;;;;;;2.88;2.67;;;;;;;;;;5119124;27;20261;-65
2022/08/20 06:52:58;;;;;;;2.85;2.65;;;;;;;;;;5130850;27;20209;-64
2022/08/20 06:55:26;;;;;;;2.90;2.70;;;;;;;;;;5138626;27;20206;-65
2022/08/20 06:57:58;;;;;;;2.92;2.70;;;;;;;;;;5138334;27;20203;-65
2022/08/20 07:00:25;;;;;;;3.08;2.88;;;;;;;;;;5138339;27;20209;-65
2022/08/20 07:02:53;;;;;;;2.72;2.53;;;;;;;;;;5137670;27;20503;-64
2022/08/20 07:05:21;;;;;;;2.75;2.55;;;;;;;;;;5138332;27;20226;-65
2022/08/20 07:07:49;;;;;;;2.83;2.63;;;;;;;;;;5138183;27;20202;-65
2022/08/20 07:10:20;;;;;;;2.88;2.67;;;;;;;;;;5138825;27;20202;-65
2022/08/20 07:12:49;;;;;;;2.47;2.38;;;;;;;;;;5138868;27;20202;-65
2022/08/20 07:15:17;;;;;;;2.85;2.65;;;;;;;;;;5138225;27;20198;-65
2022/08/20 07:17:49;;;;;;;2.80;2.60;;;;;;;;;;5129583;27;20259;-64
2022/08/20 07:20:16;;;;;;;2.63;2.42;;;;;;;;;;5116941;28;20214;-65
2022/08/20 07:22:44;;;;;;;2.83;2.63;;;;;;;;;;5117009;28;20213;-65
2022/08/20 07:25:13;;;;;;;3.08;2.88;;;;;;;;;;5116701;28;20215;-65
2022/08/20 07:27:42;;;;;;;2.60;2.50;;;;;;;;;;5117728;28;20207;-65
2022/08/20 07:32:56;;;;;;;2.80;2.60;;;;;;;;;;5116375;28;20182;-65
2022/08/20 07:35:24;;;;;;;2.83;2.63;;;;;;;;;;5117084;28;20483;-64
2022/08/20 07:37:53;;;;;;;2.50;2.40;;;;;;;;;;5116420;28;20271;-65
2022/08/20 07:40:22;;;;;;;2.53;2.42;;;;;;;;;;5116787;28;20203;-65
2022/08/20 07:42:52;;;;;;;2.88;2.67;;;;;;;;;;5116226;28;20279;-65
2022/08/20 07:45:19;;;;;;;2.40;2.30;;;;;;;;;;5121172;27;20214;-64
2022/08/20 07:47:48;;;;;;;2.53;2.35;;;;;;;;;;5121725;27;20202;-65
2022/08/20 07:50:16;;;;;;;2.58;2.40;;;;;;;;;;5116619;28;20241;-65
2022/08/20 07:52:44;;;;;;;2.63;2.53;;;;;;;;;;5115869;28;20211;-65
2022/08/20 07:55:13;;;;;;;2.60;2.40;;;;;;;;;;5116759;28;20202;-65
2022/08/20 07:57:41;;;;;;;2.78;2.60;;;;;;;;;;5116954;28;20289;-65
2022/08/20 08:00:12;;;;;;;2.60;2.50;;;;;;;;;;5115617;28;20203;-65
2022/08/20 08:02:39;;;;;;;2.58;2.47;;;;;;;;;;5116240;28;20203;-65
2022/08/20 08:05:07;;;;;;;2.38;2.25;;;;;;;;;;5115939;28;20222;-64
2022/08/20 08:07:35;;;;;;;2.65;2.45;;;;;;;;;;5116155;28;20206;-64
2022/08/20 08:10:03;;;;;;;2.67;2.47;;;;;;;;;;5116148;28;20203;-65
2022/08/20 08:12:35;;;;;;;2.83;2.63;;;;;;;;;;5122835;28;20194;-65
2022/08/20 08:15:02;;;;;;;2.60;2.40;;;;;;;;;;5136936;28;20198;-64
2022/08/20 08:17:31;;;;;;;2.40;2.30;;;;;;;;;;5135597;28;20206;-65
2022/08/20 08:19:59;;;;;;;2.50;2.33;;;;;;;;;;5136687;28;20210;-65
2022/08/20 08:22:28;;;;;;;2.50;2.30;;;;;;;;;;5136036;28;20221;-65
2022/08/20 08:25:00;;;;;;;2.55;2.30;;;;;;;;;;5135281;28;20222;-65
2022/08/20 08:27:31;;;;;;;2.72;2.53;;;;;;;;;;5135970;28;20198;-65
2022/08/20 08:29:58;;;;;;;3.63;2.50;;;;;;;;;;5135843;28;20237;-65
2022/08/20 08:32:25;;;;;;;2.60;2.50;;;;;;;;;;5138301;28;20202;-65
2022/08/20 08:34:54;;;;;;;2.67;2.47;;;;;;;;;;5136380;28;20203;-65
2022/08/20 08:37:22;;;;;;;2.88;2.50;;;;;;;;;;5136625;28;20328;-65
2022/08/20 08:39:49;;;;;;;2.50;2.40;;;;;;;;;;5134962;28;20490;-65
2022/08/20 08:42:21;;;;;;;2.63;2.33;;;;;;;;;;5136318;28;20202;-65
2022/08/20 08:44:49;;;;;;;2.55;2.35;;;;;;;;;;5134375;28;20321;-65
2022/08/20 08:47:28;;;;;;;2.20;2.10;;;;;;;;;;5115244;28;20203;-65
2022/08/20 08:49:57;;;;;;;2.42;2.33;;;;;;;;;;5114917;28;20256;-65
2022/08/20 08:52:27;;;;;;;2.03;1.92;;;;;;;;;;5115304;28;20207;-65
2022/08/20 08:54:55;;;;;;;2.50;2.30;;;;;;;;;;5115426;28;20263;-65
2022/08/20 08:57:23;;;;;;;2.42;2.30;;;;;;;;;;5114963;28;20297;-65
2022/08/20 08:59:54;;;;;;;2.58;2.38;;;;;;;;;;5114952;28;20650;-65
2022/08/20 09:02:22;;;;;;;2.45;2.25;;;;;;;;;;5114862;28;20210;-65
2022/08/20 09:04:50;;;;;;;2.50;2.30;;;;;;;;;;5116060;28;20227;-65
2022/08/20 09:07:19;;;;;;;2.10;2.00;;;;;;;;;;5119337;27;20309;-65
2022/08/20 09:09:46;;;;;;;2.67;2.40;;;;;;;;;;5118121;28;20202;-65
2022/08/20 09:12:17;;;;;;;2.30;2.20;;;;;;;;;;5118934;28;20218;-65
2022/08/20 09:14:46;;;;;;;2.70;2.50;;;;;;;;;;5118523;28;20203;-65
2022/08/20 09:17:14;;;;;;;2.40;2.30;;;;;;;;;;5117905;28;20202;-65
2022/08/20 09:19:42;;;;;;;2.33;2.17;;;;;;;;;;5118409;28;20210;-65
2022/08/20 09:22:09;;;;;;;2.25;2.15;;;;;;;;;;5118492;28;20203;-65
2022/08/20 09:24:38;;;;;;;2.30;2.10;;;;;;;;;;5117315;28;20222;-65
2022/08/20 09:27:06;;;;;;;2.58;2.40;;;;;;;;;;5117993;28;20229;-65
2022/08/20 09:29:34;;;;;;;2.50;2.30;;;;;;;;;;5117637;28;20521;-65
2022/08/20 09:32:05;;;;;;;2.22;2.03;;;;;;;;;;5117499;28;20209;-65
2022/08/20 09:34:35;;;;;;;2.22;2.10;;;;;;;;;;5120967;27;20248;-65
2022/08/20 09:37:02;;;;;;;2.28;2.17;;;;;;;;;;5136331;27;20226;-65
2022/08/20 09:39:30;;;;;;;2.40;2.30;;;;;;;;;;5138337;27;20209;-65
2022/08/20 09:42:08;;;;;;;2.42;2.33;;;;;;;;;;5139163;27;20202;-65
2022/08/20 09:44:35;;;;;;;2.40;2.20;;;;;;;;;;5137988;27;20329;-65
2022/08/20 09:47:03;;;;;;;2.10;2.00;;;;;;;;;;5137676;27;20206;-66
2022/08/20 09:49:30;;;;;;;2.40;2.30;;;;;;;;;;5137652;27;20591;-65
2022/08/20 09:51:58;;;;;;;2.28;2.17;;;;;;;;;;5137554;27;20203;-65
2022/08/20 09:54:28;;;;;;;2.28;2.17;;;;;;;;;;5137519;27;20266;-65
2022/08/20 09:56:56;;;;;;;2.40;2.30;;;;;;;;;;5137640;27;20202;-65
2022/08/20 09:59:25;;;;;;;2.53;2.33;;;;;;;;;;5137634;27;20702;-65
2022/08/20 10:01:52;;;;;;;2.20;2.10;;;;;;;;;;5132697;27;20206;-65
2022/08/20 10:04:20;;;;;;;2.15;2.05;;;;;;;;;;5116640;28;20535;-65
2022/08/20 10:06:47;;;;;;;2.33;2.22;;;;;;;;;;5116401;28;20230;-65
2022/08/20 10:09:14;;;;;;;2.22;2.08;;;;;;;;;;5116674;28;20264;-65
2022/08/20 10:11:42;;;;;;;2.38;2.20;;;;;;;;;;5116555;28;20211;-66
2022/08/20 10:14:09;;;;;;;2.38;2.17;;;;;;;;;;5115490;28;20222;-65
2022/08/20 10:16:38;;;;;;;2.35;2.25;;;;;;;;;;5116427;28;20199;-65
2022/08/20 10:19:06;;;;;;;2.30;2.20;;;;;;;;;;5116345;28;20203;-65
2022/08/20 10:21:33;;;;;;;2.30;2.20;;;;;;;;;;5116200;28;20203;-65
2022/08/20 10:24:01;;;;;;;2.50;2.30;;;;;;;;;;5116756;28;20203;-65
2022/08/20 10:26:28;;;;;;;2.28;2.17;;;;;;;;;;5116310;28;20235;-65
2022/08/20 10:28:56;;;;;;;2.20;2.10;;;;;;;;;;5117484;27;20508;-65
2022/08/20 10:31:23;;;;;;;2.10;2.00;;;;;;;;;;5137270;27;20697;-65
2022/08/20 10:33:52;;;;;;;2.55;2.38;;;;;;;;;;5132896;27;20195;-65
2022/08/20 10:36:19;;;;;;;2.38;2.17;;;;;;;;;;5129958;27;20194;-65
2022/08/20 10:38:47;;;;;;;2.40;2.30;;;;;;;;;;5135764;27;20203;-65
2022/08/20 10:41:15;;;;;;;2.10;2.00;;;;;;;;;;5136892;27;20194;-65
2022/08/20 10:43:42;;;;;;;2.40;2.20;;;;;;;;;;5136827;27;20666;-65
2022/08/20 10:46:09;;;;;;;2.53;2.40;;;;;;;;;;5135903;27;20223;-65
2022/08/20 10:48:37;;;;;;;2.30;2.20;;;;;;;;;;5136261;27;20272;-65
2022/08/20 10:51:05;;;;;;;2.20;2.10;;;;;;;;;;5136492;27;20259;-65
2022/08/20 10:53:33;;;;;;;2.17;2.00;;;;;;;;;;5137459;27;20240;-65
2022/08/20 10:56:01;;;;;;;2.30;2.20;;;;;;;;;;5127913;27;20207;-65
2022/08/20 10:58:28;;;;;;;2.15;2.05;;;;;;;;;;5115568;28;20203;-65
2022/08/20 11:00:55;;;;;;;2.15;2.05;;;;;;;;;;5116261;28;20207;-65
2022/08/20 11:03:22;;;;;;;2.33;2.22;;;;;;;;;;5116041;28;20210;-65
2022/08/20 11:05:50;;;;;;;2.50;2.40;;;;;;;;;;5115246;28;20223;-65
2022/08/20 11:08:19;;;;;;;2.10;2.00;;;;;;;;;;5115355;28;20203;-65
2022/08/20 11:10:46;;;;;;;2.10;2.00;;;;;;;;;;5115498;28;20206;-65
2022/08/20 11:13:13;;;;;;;2.38;2.17;;;;;;;;;;5115284;28;20589;-65
2022/08/20 11:15:42;;;;;;;2.25;2.15;;;;;;;;;;5116293;28;20241;-65
2022/08/20 11:18:10;;;;;;;2.28;2.17;;;;;;;;;;5115043;28;20289;-65
2022/08/20 11:20:37;;;;;;;2.20;2.10;;;;;;;;;;5115358;28;20275;-65
2022/08/20 11:23:05;;;;;;;2.15;2.05;;;;;;;;;;5113700;27;20256;-65
2022/08/20 11:25:34;;;;;;;2.38;2.22;;;;;;;;;;5112529;28;20280;-65
2022/08/20 11:28:02;;;;;;;2.20;2.10;;;;;;;;;;5113567;28;20203;-65
2022/08/20 11:30:30;;;;;;;2.25;2.08;;;;;;;;;;5113303;28;20227;-66
2022/08/20 11:32:58;;;;;;;2.08;1.98;;;;;;;;;;5114837;28;20195;-65
2022/08/20 11:35:26;;;;;;;2.20;2.10;;;;;;;;;;5114055;28;20676;-65
2022/08/20 11:37:54;;;;;;;2.25;2.15;;;;;;;;;;5114676;28;20499;-65
2022/08/20 11:40:22;;;;;;;2.28;2.17;;;;;;;;;;5113991;28;20203;-65
2022/08/20 11:42:51;;;;;;;2.50;2.30;;;;;;;;;;5114755;28;20202;-66
2022/08/20 11:45:18;;;;;;;2.38;2.20;;;;;;;;;;5114880;28;20222;-65
2022/08/20 11:47:45;;;;;;;2.72;2.53;;;;;;;;;;5114338;28;20556;-65
2022/08/20 11:50:14;;;;;;;2.42;2.22;;;;;;;;;;5117222;28;20211;-65
2022/08/20 11:52:41;;;;;;;2.10;2.00;;;;;;;;;;5135149;28;20202;-65
2022/08/20 11:55:10;;;;;;;2.50;2.20;;;;;;;;;;5135579;28;20272;-65
2022/08/20 11:57:38;;;;;;;2.17;2.08;;;;;;;;;;5135029;28;20263;-65
2022/08/20 12:00:08;;;;;;;2.30;2.20;;;;;;;;;;5135526;28;20281;-65
2022/08/20 12:02:36;;;;;;;2.60;2.40;;;;;;;;;;5135826;28;20376;-65
2022/08/20 12:05:04;;;;;;;2.30;2.20;;;;;;;;;;5136401;28;20266;-65
2022/08/20 12:07:31;;;;;;;2.40;2.20;;;;;;;;;;5134995;28;20198;-66
2022/08/20 12:09:59;;;;;;;2.25;2.15;;;;;;;;;;5133724;28;20206;-65
2022/08/20 12:12:26;;;;;;;2.40;2.30;;;;;;;;;;5134050;28;20213;-65
2022/08/20 12:14:54;;;;;;;2.40;2.30;;;;;;;;;;5135286;28;20210;-65
2022/08/20 12:17:25;;;;;;;2.30;2.20;;;;;;;;;;5134269;28;20269;-65
2022/08/20 12:19:53;;;;;;;2.35;2.25;;;;;;;;;;5112779;28;20224;-65
2022/08/20 12:22:21;;;;;;;2.97;2.78;;;;;;;;;;5114238;28;20203;-65
2022/08/20 12:24:48;;;;;;;2.30;2.20;;;;;;;;;;5114283;28;20210;-65
2022/08/20 12:27:17;;;;;;;2.55;2.35;;;;;;;;;;5113751;28;20226;-65
2022/08/20 12:29:45;;;;;;;2.63;2.42;;;;;;;;;;5126203;28;20226;-66
2022/08/20 12:32:13;;;;;;;2.40;2.20;;;;;;;;;;5134738;28;20202;-65
2022/08/20 12:34:42;;;;;;;2.40;2.30;;;;;;;;;;5135116;28;20401;-65
2022/08/20 12:37:10;;;;;;;3.92;2.35;;;;;;;;;;5133949;28;20206;-65
2022/08/20 12:39:39;;;;;;;2.30;2.10;;;;;;;;;;5137086;27;20254;-65
2022/08/20 12:42:06;;;;;;;2.47;2.30;;;;;;;;;;5138902;27;20228;-65
2022/08/20 12:44:34;;;;;;;2.55;2.35;;;;;;;;;;5139520;27;20567;-65
2022/08/20 12:47:08;;;;;;;2.50;2.30;;;;;;;;;;5123047;27;20230;-65
2022/08/20 12:49:36;;;;;;;3.00;2.70;;;;;;;;;;5117915;28;20217;-65
2022/08/20 12:52:05;;;;;;;2.40;2.20;;;;;;;;;;5118200;28;20211;-65
2022/08/20 12:54:33;;;;;;;2.60;2.42;;;;;;;;;;5117113;28;20263;-65
2022/08/20 12:57:00;;;;;;;2.40;2.30;;;;;;;;;;5117283;28;20248;-65
2022/08/20 12:59:28;;;;;;;3.03;2.45;;;;;;;;;;5117972;28;20275;-65
2022/08/20 13:01:55;;;;;;;2.30;2.20;;;;;;;;;;5117798;28;20546;-65
2022/08/20 13:04:22;;;;;;;2.10;2.00;;;;;;;;;;5118256;28;20583;-65
2022/08/20 13:06:50;;;;;;;3.35;2.60;;;;;;;;;;5117387;28;20223;-65
2022/08/20 13:09:19;;;;;;;2.85;2.65;;;;;;;;;;5118476;28;20255;-65
2022/08/20 13:11:46;;;;;;;2.70;2.50;;;;;;;;;;5117303;28;20210;-65
2022/08/20 13:14:14;;;;;;;2.65;2.45;;;;;;;;;;5131824;27;20190;-65
2022/08/20 13:16:42;;;;;;;2.90;2.70;;;;;;;;;;5138140;27;20198;-65
2022/08/20 13:19:09;;;;;;;2.45;2.33;;;;;;;;;;5138418;27;20262;-65
2022/08/20 13:21:37;;;;;;;2.92;2.72;;;;;;;;;;5138193;27;20251;-65
2022/08/20 13:24:04;;;;;;;2.60;2.50;;;;;;;;;;5137704;27;20265;-65
2022/08/20 13:26:33;;;;;;;2.70;2.50;;;;;;;;;;5137843;27;20287;-65
2022/08/20 13:29:00;;;;;;;2.40;2.30;;;;;;;;;;5137334;27;20291;-65
2022/08/20 13:31:28;;;;;;;2.53;2.33;;;;;;;;;;5138141;27;20251;-65
2022/08/20 13:33:55;;;;;;;2.22;2.13;;;;;;;;;;5137670;27;20242;-65
2022/08/20 13:36:23;;;;;;;2.75;2.55;;;;;;;;;;5137236;27;20206;-65
2022/08/20 13:38:50;;;;;;;2.63;2.53;;;;;;;;;;5138467;27;20570;-65
2022/08/20 13:41:17;;;;;;;2.70;2.50;;;;;;;;;;5126292;27;20272;-65
2022/08/20 13:43:46;;;;;;;2.80;2.60;;;;;;;;;;5117664;28;20268;-65
2022/08/20 13:46:13;;;;;;;2.90;2.70;;;;;;;;;;5116868;28;20946;-65
2022/08/20 13:48:41;;;;;;;3.05;2.85;;;;;;;;;;5116858;28;20267;-65
2022/08/20 13:51:08;;;;;;;2.47;2.38;;;;;;;;;;5116430;28;20207;-65
2022/08/20 13:53:36;;;;;;;2.63;2.50;;;;;;;;;;5117651;28;20207;-65
2022/08/20 13:56:03;;;;;;;2.92;2.72;;;;;;;;;;5116539;28;20248;-65
2022/08/20 13:58:30;;;;;;;2.70;2.50;;;;;;;;;;5116316;28;20260;-65
2022/08/20 14:00:59;;;;;;;2.53;2.42;;;;;;;;;;5116605;28;20210;-65
2022/08/20 14:03:28;;;;;;;2.50;2.40;;;;;;;;;;5116495;28;20211;-65
2022/08/20 14:05:55;;;;;;;2.65;2.50;;;;;;;;;;5116160;28;20405;-65
2022/08/20 14:08:24;;;;;;;2.70;2.50;;;;;;;;;;5120279;27;20199;-65
2022/08/20 14:10:51;;;;;;;2.88;2.67;;;;;;;;;;5116774;28;20268;-65
2022/08/20 14:13:19;;;;;;;2.58;2.47;;;;;;;;;;5116222;28;20583;-65
2022/08/20 14:15:47;;;;;;;2.92;2.72;;;;;;;;;;5117101;28;20214;-65
2022/08/20 14:18:16;;;;;;;2.80;2.60;;;;;;;;;;5116336;28;20268;-65
2022/08/20 14:20:44;;;;;;;2.63;2.50;;;;;;;;;;5116399;28;20225;-65
2022/08/20 14:23:11;;;;;;;3.33;3.13;;;;;;;;;;5116411;28;20237;-65
2022/08/20 14:25:38;;;;;;;2.47;2.35;;;;;;;;;;5115434;28;20201;-65
2022/08/20 14:28:12;;;;;;;2.72;2.63;;;;;;;;;;5116167;28;20610;-65
2022/08/20 14:30:40;;;;;;;3.03;2.83;;;;;;;;;;5115944;28;20639;-65
2022/08/20 14:33:07;;;;;;;2.70;2.50;;;;;;;;;;5116118;28;20297;-65
2022/08/20 14:35:36;;;;;;;2.67;2.50;;;;;;;;;;5121343;27;20205;-65
2022/08/20 14:38:03;;;;;;;2.88;2.67;;;;;;;;;;5135717;27;20198;-65
2022/08/20 14:40:30;;;;;;;2.70;2.60;;;;;;;;;;5135578;27;20209;-66
2022/08/20 14:42:58;;;;;;;2.70;2.60;;;;;;;;;;5136937;27;20210;-66
2022/08/20 14:45:26;;;;;;;2.72;2.53;;;;;;;;;;5135025;27;20205;-66
2022/08/20 14:47:54;;;;;;;2.70;2.58;;;;;;;;;;5135831;27;20234;-66
2022/08/20 14:50:23;;;;;;;3.10;2.90;;;;;;;;;;5135664;27;20199;-65
2022/08/20 14:52:52;;;;;;;2.60;2.40;;;;;;;;;;5136010;27;20194;-65
2022/08/20 14:55:21;;;;;;;2.95;2.75;;;;;;;;;;5134705;27;20210;-65